Date,TemperatureHighF,TemperatureAvgF,TemperatureLowF,DewpointHighF,DewpointAvgF,DewpointLowF,HumidityHigh,HumidityAvg,HumidityLow,PressureMaxIn,PressureMinIn,WindSpeedMaxMPH,WindSpeedAvgMPH,GustSpeedMaxMPH,PrecipitationSumIn
2013-11-1,77.8,74.7,73.7,71.3,68.8,67.3,91,82,74,29.93,29.69,23,6,33,0.00
2013-11-2,73.9,70.5,64.4,69.7,62.0,52.3,93,76,52,29.88,29.68,12,4,16,0.00
2013-11-3,68.6,64.6,55.4,54.1,45.8,39.2,61,51,38,30.21,29.87,15,3,20,0.00
2013-11-4,65.9,61.4,54.1,48.7,44.2,37.5,71,54,37,30.34,30.19,18,2,22,0.00
2013-11-5,63.6,59.1,45.3,58.9,53.0,42.2,95,81,65,30.35,30.24,14,4,21,0.01
2013-11-6,75.0,67.2,59.6,66.4,62.0,57.8,94,84,72,30.24,30.02,11,3,16,0.00
2013-11-7,76.0,71.2,64.2,66.6,64.9,58.4,97,81,68,30.03,29.87,10,1,14,0.00
2013-11-8,72.6,61.5,48.4,65.7,43.2,31.6,79,53,33,30.22,29.96,16,3,24,0.00
2013-11-9,64.5,59.7,48.2,51.9,44.3,33.9,72,58,40,30.27,30.15,9,1,13,0.00
2013-11-10,69.2,64.5,57.8,56.1,50.7,46.8,84,62,46,30.18,30.07,9,2,12,0.00
2013-11-11,66.9,62.7,50.8,53.4,49.7,40.2,72,63,54,30.21,30.08,11,3,16,0.00
2013-11-12,71.3,65.3,56.0,53.8,49.0,43.3,80,57,38,30.24,29.93,12,2,15,0.00
2013-11-13,67.9,52.0,35.9,46.3,30.3,18.7,60,43,31,30.43,30.24,16,4,28,0.00
2013-11-14,61.6,52.7,40.1,47.3,37.3,26.0,69,56,44,30.42,30.24,11,3,15,0.00
2013-11-15,65.5,60.8,55.5,60.4,54.5,46.9,92,80,69,30.24,30.08,10,1,12,0.00
2013-11-16,73.5,67.3,60.2,63.7,61.2,59.3,97,81,68,30.15,30.08,10,1,14,0.00
2013-11-17,73.7,68.9,60.5,69.7,65.5,59.6,97,89,79,30.11,29.93,7,0,10,0.03
2013-11-18,81.0,73.2,68.2,71.3,68.9,67.0,97,87,71,29.94,29.77,15,3,18,0.00
2013-11-19,74.9,62.7,52.3,69.3,47.6,34.4,83,59,37,30.10,29.84,16,3,22,0.00
2013-11-20,58.5,56.3,46.6,49.5,45.2,38.2,75,67,55,30.24,30.10,19,6,22,0.00
2013-11-21,70.2,62.6,57.8,62.2,55.0,49.1,82,76,70,30.30,30.22,12,8,14,0.00
2013-11-22,71.6,68.0,60.8,65.1,63.3,60.2,99,85,79,30.26,30.09,9,3,12,0.00
2013-11-23,70.7,68.3,62.9,66.0,64.6,62.3,98,88,82,30.09,29.93,14,4,19,0.00
2013-11-24,67.7,51.6,41.6,64.3,34.0,17.2,89,54,30,30.44,30.02,22,5,31,0.00
2013-11-25,49.0,45.2,34.2,39.9,29.7,10.6,75,56,37,30.44,30.16,16,6,24,0.00
2013-11-26,66.7,58.8,47.5,65.8,55.0,39.9,97,88,75,30.17,29.54,21,9,21,0.37
2013-11-27,66.6,54.9,45.3,65.7,52.1,41.4,97,90,81,30.13,29.45,28,12,35,0.01
2013-11-28,46.6,43.8,33.3,41.9,32.7,22.1,88,66,43,30.41,30.13,13,6,23,0.00
2013-11-29,57.5,50.1,39.4,42.3,35.9,29.8,72,58,48,30.44,30.37,11,1,15,0.00
2013-11-30,57.8,53.1,37.8,44.9,41.9,32.1,82,66,56,30.44,30.23,13,3,20,0.00